Time;durP1;ratioP1;P1;durP2;ratioP2;P2;SDS_P1;SDS_P2;PMS_P1;PMS_P2;Temp;Humidity;BMP_temperature;BMP_pressure;BME280_temperature;BME280_humidity;BME280_pressure;Samples;Min_cycle;Max_cycle;Signal;HPM_P1;HPM_P2
2023/12/08 00:00:29;;;;;;;8.65;5.72;;;;;;;0.02;100.00;96717.19;5038221;28;20516;-58
2023/12/08 00:02:56;;;;;;;9.85;4.90;;;;;;;0.03;100.00;96687.72;5032340;28;20053;-60
2023/12/08 00:05:22;;;;;;;9.73;5.20;;;;;;;0.01;100.00;96673.78;5032547;28;20198;-60
2023/12/08 00:07:49;;;;;;;9.93;4.80;;;;;;;0.02;100.00;96653.31;5035074;28;20104;-59
2023/12/08 00:10:15;;;;;;;8.90;5.05;;;;;;;0.09;100.00;96654.97;5042282;28;20115;-57
2023/12/08 00:12:42;;;;;;;11.73;5.53;;;;;;;0.15;100.00;96626.72;5039325;28;20037;-56
2023/12/08 00:15:09;;;;;;;9.77;4.97;;;;;;;0.15;100.00;96628.56;5036492;28;20037;-59
2023/12/08 00:17:36;;;;;;;9.57;5.15;;;;;;;0.19;100.00;96661.75;5036981;28;20069;-59
2023/12/08 00:20:03;;;;;;;10.25;5.70;;;;;;;0.44;100.00;96640.66;5030071;28;20076;-59
2023/12/08 00:22:30;;;;;;;9.18;4.93;;;;;;;0.35;100.00;96664.00;5041822;28;20036;-58
2023/12/08 00:24:56;;;;;;;9.70;5.53;;;;;;;0.31;100.00;96637.97;5037237;28;21293;-60
2023/12/08 00:27:23;;;;;;;7.72;5.13;;;;;;;0.24;100.00;96627.34;5036367;28;20037;-57
2023/12/08 00:29:50;;;;;;;10.90;5.45;;;;;;;0.21;100.00;96611.75;5030367;28;20097;-58
2023/12/08 00:32:16;;;;;;;8.27;4.78;;;;;;;0.21;100.00;96638.38;5033745;28;20574;-60
2023/12/08 00:34:46;;;;;;;9.50;5.55;;;;;;;0.18;100.00;96634.28;5031577;28;20045;-60
2023/12/08 00:37:12;;;;;;;11.35;5.43;;;;;;;0.18;100.00;96618.31;5040525;28;20037;-59
2023/12/08 00:39:40;;;;;;;10.95;5.82;;;;;;;0.12;100.00;96633.25;5041042;28;20045;-59
2023/12/08 00:42:07;;;;;;;12.10;6.20;;;;;;;0.10;100.00;96634.47;5029182;28;20521;-59
2023/12/08 00:44:33;;;;;;;9.60;5.55;;;;;;;0.07;100.00;96629.59;5047097;28;20045;-59
2023/12/08 00:47:00;;;;;;;9.70;5.40;;;;;;;0.12;100.00;96622.59;5033171;28;20040;-56
2023/12/08 00:49:26;;;;;;;9.35;5.38;;;;;;;0.18;100.00;96609.53;5035010;28;20051;-59
2023/12/08 00:51:53;;;;;;;9.23;5.43;;;;;;;0.25;100.00;96599.66;5030570;28;20047;-58
2023/12/08 00:54:19;;;;;;;11.15;6.03;;;;;;;0.25;100.00;96591.69;5033937;28;20067;-55
2023/12/08 00:56:47;;;;;;;9.60;5.63;;;;;;;0.27;100.00;96594.97;5039150;28;20060;-53
2023/12/08 00:59:14;;;;;;;9.25;5.50;;;;;;;0.28;100.00;96593.94;5035485;28;20107;-59
2023/12/08 01:01:40;;;;;;;10.77;5.03;;;;;;;0.33;100.00;96577.38;5031615;28;20045;-58
2023/12/08 01:04:07;;;;;;;11.20;6.03;;;;;;;0.26;100.00;96572.03;5033025;28;20049;-59
2023/12/08 01:06:33;;;;;;;9.25;5.32;;;;;;;0.22;100.00;96560.97;5040477;28;20068;-59
2023/12/08 01:09:00;;;;;;;8.95;4.85;;;;;;;0.30;100.00;96567.94;5037347;28;20044;-59
2023/12/08 01:11:26;;;;;;;8.85;5.05;;;;;;;0.32;100.00;96560.56;5033738;28;20048;-59
2023/12/08 01:13:53;;;;;;;8.35;5.05;;;;;;;0.35;100.00;96584.13;5044176;28;20045;-59
2023/12/08 01:16:19;;;;;;;9.80;5.10;;;;;;;0.38;100.00;96582.88;5034235;28;20043;-59
2023/12/08 01:18:46;;;;;;;11.88;5.05;;;;;;;0.42;100.00;96586.78;5043223;28;20033;-59
2023/12/08 01:21:13;;;;;;;9.93;5.90;;;;;;;0.44;100.00;96595.34;5033767;28;20045;-59
2023/12/08 01:23:39;;;;;;;9.25;5.45;;;;;;;0.44;100.00;96579.38;5034982;28;20549;-59
2023/12/08 01:26:07;;;;;;;9.73;4.68;;;;;;;0.49;100.00;96587.59;5036138;28;20550;-59
2023/12/08 01:28:33;;;;;;;8.98;4.95;;;;;;;0.46;100.00;96581.84;5031097;28;20045;-58
2023/12/08 01:31:00;;;;;;;8.05;4.20;;;;;;;0.46;100.00;96577.34;5036298;28;20041;-58
2023/12/08 01:33:26;;;;;;;9.52;4.85;;;;;;;0.50;100.00;96580.41;5041710;28;20041;-59
2023/12/08 01:35:53;;;;;;;8.85;4.35;;;;;;;0.52;100.00;96573.03;5035760;28;20041;-58
2023/12/08 01:38:46;;;;;;;9.57;5.03;;;;;;;0.56;100.00;96578.75;5040865;28;20733;-58
2023/12/08 01:41:14;;;;;;;8.27;4.50;;;;;;;0.59;100.00;96573.03;5043183;28;20512;-59
2023/12/08 01:43:42;;;;;;;8.27;4.65;;;;;;;0.66;100.00;96570.34;5043863;28;20103;-59
2023/12/08 01:46:12;;;;;;;7.47;4.32;;;;;;;0.68;100.00;96578.94;5034498;28;20053;-57
2023/12/08 01:48:40;;;;;;;7.90;4.38;;;;;;;0.73;100.00;96581.78;5034712;28;20044;-59
2023/12/08 01:51:07;;;;;;;9.48;5.05;;;;;;;0.76;100.00;96582.22;5032219;28;22605;-59
2023/12/08 01:53:34;;;;;;;6.75;4.10;;;;;;;0.77;100.00;96583.00;5034364;28;20136;-57
2023/12/08 01:56:01;;;;;;;7.57;4.45;;;;;;;0.81;100.00;96580.75;5031142;28;20120;-59
2023/12/08 01:58:28;;;;;;;7.70;4.80;;;;;;;0.83;100.00;96576.03;5031903;28;20041;-58
2023/12/08 02:00:57;;;;;;;7.40;4.55;;;;;;;0.82;100.00;96580.56;5030630;28;20041;-59
2023/12/08 02:03:26;;;;;;;8.95;4.95;;;;;;;0.80;100.00;96576.47;5036001;28;20084;-59
2023/12/08 02:05:53;;;;;;;8.80;4.85;;;;;;;0.81;100.00;96567.44;5038032;28;20042;-59
2023/12/08 02:08:20;;;;;;;6.70;4.50;;;;;;;0.82;100.00;96569.91;5031977;28;20048;-58
2023/12/08 02:10:47;;;;;;;7.70;3.97;;;;;;;0.82;100.00;96569.06;5029036;28;20044;-58
2023/12/08 02:13:16;;;;;;;8.45;4.25;;;;;;;0.85;100.00;96561.47;5033487;28;20689;-59
2023/12/08 02:15:46;;;;;;;7.47;4.38;;;;;;;0.87;100.00;96555.94;5038568;28;20045;-59
2023/12/08 02:18:16;;;;;;;6.90;4.40;;;;;;;0.85;100.00;96561.47;5030183;28;20103;-59
2023/12/08 02:20:43;;;;;;;6.55;4.20;;;;;;;0.88;100.00;96560.22;5037266;28;20068;-59
2023/12/08 02:23:10;;;;;;;7.38;4.18;;;;;;;0.88;100.00;96560.22;5031681;28;20045;-59
2023/12/08 02:25:37;;;;;;;6.10;3.47;;;;;;;0.85;100.00;96560.66;5035358;28;20041;-58
2023/12/08 02:28:04;;;;;;;6.35;3.88;;;;;;;0.88;100.00;96560.22;5033000;28;20045;-59
2023/12/08 02:30:32;;;;;;;7.28;4.47;;;;;;;0.74;100.00;96556.81;5035812;28;20033;-59
2023/12/08 02:33:17;;;;;;;8.57;4.70;;;;;;;0.75;100.00;96555.75;5033786;28;20049;-58
2023/12/08 02:35:46;;;;;;;6.78;4.18;;;;;;;0.73;100.00;96555.97;5029883;28;20405;-59
2023/12/08 02:38:18;;;;;;;8.50;4.05;;;;;;;0.74;100.00;96557.59;5032467;28;20036;-59
2023/12/08 02:40:45;;;;;;;8.68;4.47;;;;;;;0.74;100.00;96551.47;5029322;28;20042;-59
2023/12/08 02:43:12;;;;;;;8.52;4.40;;;;;;;0.75;100.00;96564.59;5048620;28;20059;-59
2023/12/08 02:45:38;;;;;;;9.00;4.05;;;;;;;0.87;100.00;96566.59;5041271;28;20050;-57
2023/12/08 02:48:05;;;;;;;5.88;3.78;;;;;;;0.97;100.00;96566.16;5032345;28;20044;-59
2023/12/08 02:50:32;;;;;;;10.38;4.18;;;;;;;1.03;100.00;96550.13;5036441;28;20044;-58
2023/12/08 02:52:58;;;;;;;7.82;4.25;;;;;;;1.03;100.00;96554.63;5035435;28;20544;-57
2023/12/08 02:55:25;;;;;;;9.70;4.47;;;;;;;1.02;100.00;96553.00;5032648;28;20045;-57
2023/12/08 02:57:51;;;;;;;8.15;4.03;;;;;;;0.97;100.00;96563.50;5037397;28;20119;-58
2023/12/08 03:00:18;;;;;;;8.00;4.10;;;;;;;0.89;100.00;96560.03;5036942;28;20041;-59
2023/12/08 03:02:45;;;;;;;6.18;3.20;;;;;;;0.92;100.00;96544.66;5035537;28;20049;-58
2023/12/08 03:05:11;;;;;;;6.10;3.53;;;;;;;0.99;100.00;96542.78;5033710;28;20535;-57
2023/12/08 03:07:38;;;;;;;6.82;3.88;;;;;;;1.00;100.00;96525.75;5036625;28;20041;-59
2023/12/08 03:10:05;;;;;;;7.50;3.55;;;;;;;0.99;100.00;96534.78;5037853;28;20037;-59
2023/12/08 03:12:32;;;;;;;6.93;3.72;;;;;;;0.96;100.00;96525.34;5028922;28;20125;-59
2023/12/08 03:14:58;;;;;;;6.22;4.03;;;;;;;0.89;100.00;96530.69;5038094;28;20102;-59
2023/12/08 03:17:25;;;;;;;7.93;4.22;;;;;;;0.80;100.00;96525.84;5035002;28;20116;-59
2023/12/08 03:19:52;;;;;;;7.78;3.83;;;;;;;0.74;100.00;96506.16;5043586;28;20039;-59
2023/12/08 03:22:19;;;;;;;7.30;3.90;;;;;;;0.70;100.00;96518.28;5030139;28;20045;-59
2023/12/08 03:24:45;;;;;;;8.85;4.32;;;;;;;0.69;100.00;96511.28;5032874;28;20041;-59
2023/12/08 03:27:12;;;;;;;7.47;4.28;;;;;;;0.53;100.00;96540.03;5033881;28;20555;-59
2023/12/08 03:29:40;;;;;;;6.30;3.75;;;;;;;0.59;100.00;96520.53;5041727;28;20041;-59
2023/12/08 03:32:07;;;;;;;8.52;4.20;;;;;;;0.61;100.00;96539.81;5032413;28;20041;-59
2023/12/08 03:34:34;;;;;;;8.23;4.05;;;;;;;0.62;100.00;96554.78;5039660;28;20040;-59
2023/12/08 03:37:01;;;;;;;7.05;3.58;;;;;;;0.60;100.00;96556.84;5038711;28;20103;-59
2023/12/08 03:39:27;;;;;;;8.57;4.05;;;;;;;0.54;100.00;96532.84;5030256;28;20042;-59
2023/12/08 03:41:54;;;;;;;7.50;3.63;;;;;;;0.53;100.00;96521.38;5044137;28;20053;-59
2023/12/08 03:44:20;;;;;;;7.78;4.13;;;;;;;0.56;100.00;96509.50;5038111;28;20064;-59
2023/12/08 03:46:47;;;;;;;9.15;4.35;;;;;;;0.55;100.00;96500.69;5031687;28;20124;-59
2023/12/08 03:49:13;;;;;;;7.00;4.10;;;;;;;0.55;100.00;96507.88;5035508;28;20033;-58
2023/12/08 03:51:40;;;;;;;7.35;4.00;;;;;;;0.59;100.00;96517.88;5045536;28;20033;-59
2023/12/08 03:54:07;;;;;;;7.90;3.97;;;;;;;0.59;100.00;96533.06;5035882;28;20408;-59
2023/12/08 03:56:33;;;;;;;9.50;4.47;;;;;;;0.61;100.00;96542.47;5032832;28;20053;-59
2023/12/08 03:59:00;;;;;;;8.00;4.95;;;;;;;0.66;100.00;96538.38;5031011;28;20535;-59
2023/12/08 04:01:26;;;;;;;8.55;4.25;;;;;;;0.77;100.00;96548.38;5035135;28;20120;-59
2023/12/08 04:03:53;;;;;;;6.60;3.90;;;;;;;1.07;100.00;96536.38;5036344;28;20037;-59
2023/12/08 04:06:20;;;;;;;10.57;4.18;;;;;;;1.03;100.00;96530.63;5033644;28;20041;-59
2023/12/08 04:08:47;;;;;;;8.68;4.97;;;;;;;1.06;100.00;96532.91;5036619;28;20064;-58
2023/12/08 04:11:13;;;;;;;7.25;4.40;;;;;;;1.22;100.00;96530.78;5041223;28;20064;-59
2023/12/08 04:13:40;;;;;;;7.70;4.78;;;;;;;1.33;100.00;96538.13;5037345;28;20120;-59
2023/12/08 04:16:07;;;;;;;6.97;4.13;;;;;;;1.39;100.00;96542.59;5040110;28;20448;-59
2023/12/08 04:18:35;;;;;;;7.50;4.20;;;;;;;1.46;100.00;96528.38;5036873;28;20114;-61
2023/12/08 04:21:02;;;;;;;8.00;4.75;;;;;;;1.43;100.00;96530.47;5037704;28;20531;-58
2023/12/08 04:23:28;;;;;;;9.68;4.93;;;;;;;1.42;100.00;96528.00;5039522;28;20049;-59
2023/12/08 04:25:55;;;;;;;6.88;4.20;;;;;;;1.44;100.00;96539.28;5038608;28;20039;-58
2023/12/08 04:28:24;;;;;;;7.53;4.25;;;;;;;1.46;100.00;96542.53;5033451;28;20029;-59
2023/12/08 04:30:51;;;;;;;8.38;4.40;;;;;;;1.45;100.00;96524.09;5036531;28;20052;-59
2023/12/08 04:33:18;;;;;;;9.25;5.07;;;;;;;1.45;100.00;96532.91;5035935;28;20069;-60
2023/12/08 04:35:45;;;;;;;8.80;5.07;;;;;;;1.53;100.00;96534.50;5037025;28;20519;-60
2023/12/08 04:38:11;;;;;;;9.35;4.82;;;;;;;1.54;100.00;96518.28;5038301;28;20048;-58
2023/12/08 04:40:38;;;;;;;9.50;4.68;;;;;;;1.52;100.00;96528.34;5037125;28;20120;-60
2023/12/08 04:43:05;;;;;;;7.93;4.63;;;;;;;1.44;100.00;96539.28;5035629;28;20116;-61
2023/12/08 04:45:31;;;;;;;10.45;4.30;;;;;;;1.39;100.00;96545.25;5037371;28;20040;-60
2023/12/08 04:47:58;;;;;;;9.13;5.18;;;;;;;1.36;100.00;96539.53;5036938;28;20060;-60
2023/12/08 04:50:25;;;;;;;9.07;5.20;;;;;;;1.32;100.00;96533.00;5035351;28;20532;-60
2023/12/08 04:52:51;;;;;;;8.45;4.63;;;;;;;1.36;100.00;96527.00;5040194;28;20072;-60
2023/12/08 04:55:18;;;;;;;8.15;5.15;;;;;;;1.50;100.00;96533.09;5041295;28;20052;-60
2023/12/08 04:57:45;;;;;;;10.90;5.25;;;;;;;1.60;100.00;96515.78;5039982;28;20069;-61
2023/12/08 05:00:12;;;;;;;15.20;5.07;;;;;;;1.58;100.00;96513.31;5039935;28;20501;-59
2023/12/08 05:02:39;;;;;;;9.00;5.43;;;;;;;1.59;100.00;96503.47;5036158;28;20572;-60
2023/12/08 05:05:05;;;;;;;8.63;4.75;;;;;;;1.56;100.00;96502.06;5040757;28;20041;-60
2023/12/08 05:07:32;;;;;;;9.82;4.80;;;;;;;1.54;100.00;96485.44;5036095;28;20045;-60
2023/12/08 05:09:58;;;;;;;8.68;5.03;;;;;;;1.53;100.00;96479.31;5037792;28;20073;-59
2023/12/08 05:12:25;;;;;;;9.05;4.60;;;;;;;1.45;100.00;96476.06;5037374;28;20120;-59
2023/12/08 05:14:52;;;;;;;9.88;5.53;;;;;;;1.43;100.00;96479.78;5041635;28;20404;-59
2023/12/08 05:17:18;;;;;;;12.05;5.32;;;;;;;1.35;100.00;96480.03;5036656;28;20037;-59
2023/12/08 05:19:45;;;;;;;9.68;5.05;;;;;;;1.33;100.00;96482.09;5037795;28;20218;-60
2023/12/08 05:22:12;;;;;;;9.68;5.22;;;;;;;1.38;100.00;96486.78;5046057;28;20056;-60
2023/12/08 05:24:38;;;;;;;9.68;4.90;;;;;;;1.40;100.00;96490.06;5039217;28;20041;-60
2023/12/08 05:27:05;;;;;;;7.43;3.80;;;;;;;1.59;100.00;96487.47;5030727;28;20103;-58
2023/12/08 05:29:32;;;;;;;8.05;3.92;;;;;;;1.87;100.00;96492.38;5036404;28;20041;-58
2023/12/08 05:31:59;;;;;;;7.50;4.38;;;;;;;1.78;100.00;96486.50;5038160;28;20048;-59
2023/12/08 05:34:26;;;;;;;10.70;3.70;;;;;;;1.72;100.00;96497.22;5043271;28;20044;-59
2023/12/08 05:36:53;;;;;;;9.45;4.30;;;;;;;1.62;100.00;96498.53;5037039;28;20408;-60
2023/12/08 05:39:19;;;;;;;8.00;4.10;;;;;;;1.58;100.00;96494.66;5036455;28;20044;-60
2023/12/08 05:41:46;;;;;;;10.48;4.68;;;;;;;1.64;100.00;96488.47;5033871;28;20049;-59
2023/12/08 05:44:15;;;;;;;9.02;4.40;;;;;;;1.71;100.00;96495.59;5039310;28;20041;-59
2023/12/08 05:46:42;;;;;;;9.18;4.03;;;;;;;1.78;100.00;96502.53;5038426;28;20475;-60
2023/12/08 05:49:09;;;;;;;9.05;4.35;;;;;;;1.81;100.00;96499.41;5040459;28;20045;-60
2023/12/08 05:51:36;;;;;;;8.75;4.10;;;;;;;1.93;100.00;96496.88;5040442;28;20049;-58
2023/12/08 05:54:03;;;;;;;10.55;4.03;;;;;;;1.98;100.00;96495.41;5039745;28;20516;-60
2023/12/08 05:56:29;;;;;;;8.80;4.55;;;;;;;1.95;100.00;96502.78;5040035;28;20590;-58
2023/12/08 05:58:56;;;;;;;8.07;3.85;;;;;;;1.85;100.00;96512.31;5042290;28;20080;-58
2023/12/08 06:01:22;;;;;;;8.20;4.35;;;;;;;1.84;100.00;96506.16;5037767;28;20139;-59
2023/12/08 06:03:49;;;;;;;8.80;4.28;;;;;;;1.86;100.00;96520.13;5042935;28;20511;-59
2023/12/08 06:06:16;;;;;;;7.35;4.28;;;;;;;1.90;100.00;96525.84;5032493;28;20038;-59
2023/12/08 06:08:43;;;;;;;8.25;3.85;;;;;;;1.88;100.00;96520.72;5043204;28;20668;-60
2023/12/08 06:11:09;;;;;;;8.45;4.20;;;;;;;1.88;100.00;96519.91;5031412;28;20123;-57
2023/12/08 06:13:36;;;;;;;8.23;3.85;;;;;;;1.86;100.00;96516.63;5039873;28;20051;-58
2023/12/08 06:16:03;;;;;;;7.75;4.45;;;;;;;1.84;100.00;96516.84;5046601;28;20071;-59
2023/12/08 06:18:30;;;;;;;11.25;5.15;;;;;;;1.91;100.00;96512.28;5034765;28;20053;-58
2023/12/08 06:20:58;;;;;;;9.50;4.75;;;;;;;1.93;100.00;96514.72;5038928;28;20096;-58
2023/12/08 06:23:25;;;;;;;8.18;4.72;;;;;;;1.93;100.00;96517.41;5041681;28;20037;-59
2023/12/08 06:25:52;;;;;;;10.02;4.35;;;;;;;1.88;100.00;96514.56;5045067;28;20049;-58
2023/12/08 06:28:18;;;;;;;9.85;4.65;;;;;;;1.96;100.00;96514.31;5036942;28;20040;-59
2023/12/08 06:30:45;;;;;;;9.38;4.85;;;;;;;2.10;100.00;96512.31;5039701;28;20044;-60
2023/12/08 06:33:12;;;;;;;8.77;5.30;;;;;;;1.94;100.00;96509.19;5037279;28;20402;-60
2023/12/08 06:35:38;;;;;;;13.48;6.15;;;;;;;2.05;100.00;96512.16;5037874;28;20041;-59
2023/12/08 06:38:05;;;;;;;10.88;5.43;;;;;;;1.94;100.00;96511.00;5035705;28;20977;-59
2023/12/08 06:40:31;;;;;;;10.70;6.28;;;;;;;1.94;100.00;96509.19;5041233;28;20087;-61
2023/12/08 06:42:58;;;;;;;11.88;6.95;;;;;;;1.88;100.00;96507.34;5034207;28;20040;-59
2023/12/08 06:45:25;;;;;;;10.65;6.10;;;;;;;1.83;100.00;96509.06;5032596;28;20688;-60
2023/12/08 06:47:51;;;;;;;12.20;6.30;;;;;;;1.80;100.00;96512.97;5033039;28;20053;-59
2023/12/08 06:50:18;;;;;;;10.52;5.63;;;;;;;1.80;100.00;96515.63;5038507;28;20033;-60
2023/12/08 06:52:46;;;;;;;10.70;6.25;;;;;;;1.70;100.00;96513.47;5038737;28;20047;-60
2023/12/08 06:55:13;;;;;;;14.75;6.78;;;;;;;1.71;100.00;96511.59;5039596;28;20437;-59
2023/12/08 06:57:39;;;;;;;13.20;7.10;;;;;;;1.64;100.00;96517.81;5030614;28;20045;-59
2023/12/08 07:00:10;;;;;;;12.70;7.00;;;;;;;1.63;100.00;96512.69;5034583;28;20033;-60
2023/12/08 07:02:37;;;;;;;11.25;6.43;;;;;;;1.61;100.00;96520.91;5034033;28;20056;-59
2023/12/08 07:05:04;;;;;;;11.18;6.50;;;;;;;1.72;100.00;96518.56;5036266;28;20083;-59
2023/12/08 07:07:30;;;;;;;9.75;5.88;;;;;;;1.76;100.00;96530.44;5036400;28;20041;-60
2023/12/08 07:09:57;;;;;;;12.05;6.57;;;;;;;1.79;100.00;96525.50;5033379;28;20037;-59
2023/12/08 07:12:23;;;;;;;15.02;7.05;;;;;;;1.86;100.00;96527.31;5034579;28;20040;-59
2023/12/08 07:14:50;;;;;;;11.95;6.30;;;;;;;1.90;100.00;96523.16;5032665;28;20161;-59
2023/12/08 07:17:17;;;;;;;11.68;5.88;;;;;;;1.94;100.00;96519.84;5033853;28;20132;-59
2023/12/08 07:19:44;;;;;;;11.98;6.53;;;;;;;1.94;100.00;96511.00;5038732;28;20045;-60
2023/12/08 07:22:11;;;;;;;12.05;6.50;;;;;;;1.83;100.00;96509.88;5032602;28;20103;-59
2023/12/08 07:24:40;;;;;;;13.05;6.78;;;;;;;1.73;100.00;96504.22;5040847;28;20047;-60
2023/12/08 07:27:06;;;;;;;12.38;5.65;;;;;;;1.73;100.00;96505.00;5035717;28;20467;-59
2023/12/08 07:29:33;;;;;;;10.98;6.07;;;;;;;1.71;100.00;96504.41;5034132;28;20385;-60
2023/12/08 07:31:59;;;;;;;16.85;9.02;;;;;;;1.81;100.00;96517.28;5033362;28;20284;-59
2023/12/08 07:34:26;;;;;;;15.55;9.25;;;;;;;1.81;100.00;96510.09;5040026;28;20452;-60
2023/12/08 07:36:53;;;;;;;17.85;8.80;;;;;;;1.86;100.00;96519.28;5039498;28;20072;-59
2023/12/08 07:39:19;;;;;;;13.43;7.93;;;;;;;1.92;100.00;96521.91;5030192;28;20042;-60
2023/12/08 07:41:47;;;;;;;11.38;6.68;;;;;;;1.95;100.00;96513.47;5031229;28;20136;-60
2023/12/08 07:44:14;;;;;;;14.43;6.75;;;;;;;1.94;100.00;96517.19;5035701;28;20041;-60
2023/12/08 07:46:41;;;;;;;12.43;6.63;;;;;;;2.03;100.00;96524.94;5033733;28;20041;-60
2023/12/08 07:49:08;;;;;;;10.65;5.85;;;;;;;2.09;100.00;96529.38;5042699;28;20651;-59
2023/12/08 07:51:36;;;;;;;10.85;6.40;;;;;;;2.13;100.00;96535.13;5037355;28;20075;-59
2023/12/08 07:54:03;;;;;;;11.73;6.20;;;;;;;2.20;100.00;96542.03;5037158;28;20091;-59
2023/12/08 07:56:30;;;;;;;13.70;7.03;;;;;;;2.19;100.00;96548.41;5037551;28;20048;-60
2023/12/08 07:58:56;;;;;;;11.38;6.03;;;;;;;2.27;100.00;96557.16;5036837;28;20041;-59
2023/12/08 08:01:23;;;;;;;10.50;5.72;;;;;;;2.29;100.00;96561.25;5032616;28;20056;-60
2023/12/08 08:03:49;;;;;;;11.52;6.82;;;;;;;2.28;100.00;96559.63;5033044;28;20522;-58
2023/12/08 08:06:16;;;;;;;9.15;5.63;;;;;;;2.34;100.00;96557.94;5039793;28;20044;-59
2023/12/08 08:08:43;;;;;;;11.82;6.47;;;;;;;2.39;100.00;96557.28;5037621;28;20490;-59
2023/12/08 08:11:09;;;;;;;11.63;6.50;;;;;;;2.43;100.00;96566.50;5035539;28;20146;-58
2023/12/08 08:13:36;;;;;;;11.15;5.93;;;;;;;2.44;100.00;96560.91;5029665;28;20037;-59
2023/12/08 08:16:02;;;;;;;11.52;5.97;;;;;;;2.48;100.00;96558.66;5034254;28;20283;-59
2023/12/08 08:18:29;;;;;;;10.90;6.20;;;;;;;2.49;100.00;96562.94;5032386;28;20651;-59
2023/12/08 08:20:56;;;;;;;9.95;6.10;;;;;;;2.54;100.00;96568.44;5018664;28;20073;-59
2023/12/08 08:23:22;;;;;;;15.93;6.50;;;;;;;2.62;100.00;96577.22;5040359;28;20122;-60
2023/12/08 08:25:49;;;;;;;11.57;6.38;;;;;;;2.64;100.00;96583.97;5036849;28;20084;-58
2023/12/08 08:28:16;;;;;;;12.60;6.25;;;;;;;2.67;100.00;96572.03;5029005;28;20042;-59
2023/12/08 08:30:43;;;;;;;10.68;6.18;;;;;;;2.70;100.00;96583.09;5036476;28;20048;-58
2023/12/08 08:33:11;;;;;;;10.10;5.93;;;;;;;2.72;100.00;96580.19;5038213;28;20083;-59
2023/12/08 08:35:39;;;;;;;10.10;5.43;;;;;;;2.77;100.00;96592.91;5036143;28;20044;-59
2023/12/08 08:38:06;;;;;;;9.90;6.20;;;;;;;2.79;100.00;96588.97;5037624;28;20045;-60
2023/12/08 08:40:33;;;;;;;10.20;5.25;;;;;;;2.83;100.00;96598.19;5035819;28;20048;-60
2023/12/08 08:43:00;;;;;;;8.13;4.68;;;;;;;2.85;100.00;96595.28;5037746;28;20128;-59
2023/12/08 08:45:26;;;;;;;8.95;5.13;;;;;;;2.94;100.00;96598.47;5036397;28;20048;-59
2023/12/08 08:47:53;;;;;;;10.45;4.75;;;;;;;3.08;100.00;96594.63;5033932;28;20048;-59
2023/12/08 08:50:22;;;;;;;9.50;4.70;;;;;;;3.09;100.00;96592.75;5032194;28;20072;-59
2023/12/08 08:52:49;;;;;;;9.05;5.35;;;;;;;3.12;100.00;96589.66;5037266;28;20458;-60
2023/12/08 08:55:15;;;;;;;8.98;4.78;;;;;;;3.17;100.00;96592.47;5037249;28;20116;-60
2023/12/08 08:57:43;;;;;;;8.75;4.75;;;;;;;3.23;100.00;96598.78;5037611;28;20052;-60
2023/12/08 09:00:12;;;;;;;9.45;4.85;;;;;;;3.30;100.00;96596.03;5029591;28;20045;-60
2023/12/08 09:02:40;;;;;;;9.10;5.10;;;;;;;3.35;100.00;96588.13;5040372;28;20072;-61
2023/12/08 09:05:07;;;;;;;7.95;4.68;;;;;;;3.36;100.00;96589.78;5048714;28;20037;-61
2023/12/08 09:07:34;;;;;;;8.00;4.20;;;;;;;3.33;100.00;96584.88;5041440;28;20530;-61
2023/12/08 09:10:03;;;;;;;7.30;4.60;;;;;;;3.25;100.00;96591.38;5033121;28;20496;-66
2023/12/08 09:12:29;;;;;;;8.30;4.60;;;;;;;3.18;100.00;96596.78;5033178;28;20432;-69
2023/12/08 09:14:56;;;;;;;7.38;4.25;;;;;;;3.15;100.00;96597.25;5036831;28;20489;-67
2023/12/08 09:17:23;;;;;;;7.10;3.80;;;;;;;3.22;100.00;96603.34;5032832;28;20835;-67
2023/12/08 09:19:50;;;;;;;8.73;4.78;;;;;;;3.22;100.00;96606.00;5039269;28;20052;-68
2023/12/08 09:22:16;;;;;;;7.55;4.28;;;;;;;3.22;100.00;96603.34;5034465;28;20064;-68
2023/12/08 09:24:43;;;;;;;7.15;4.03;;;;;;;3.31;100.00;96601.16;5041763;28;20480;-56
2023/12/08 09:27:10;;;;;;;10.43;4.57;;;;;;;3.50;100.00;96596.59;5039399;28;20255;-59
2023/12/08 09:29:37;;;;;;;7.63;4.15;;;;;;;3.60;100.00;96595.25;5040053;28;20041;-59
2023/12/08 09:32:04;;;;;;;7.50;4.22;;;;;;;3.63;100.00;96598.31;5042681;28;20045;-59
2023/12/08 09:34:30;;;;;;;7.65;4.53;;;;;;;3.64;100.00;96599.09;5037097;28;20272;-59
2023/12/08 09:36:59;;;;;;;8.95;3.60;;;;;;;3.76;100.00;96601.84;5040458;28;20049;-57
2023/12/08 09:39:46;;;;;;;7.05;3.92;;;;;;;3.80;100.00;96597.66;5038872;28;20529;-55
2023/12/08 09:42:29;;;;;;;7.13;4.53;;;;;;;3.83;100.00;96593.72;5043837;28;20052;-59
2023/12/08 09:44:56;;;;;;;9.90;4.20;;;;;;;3.75;100.00;96593.00;5041336;28;20039;-59
2023/12/08 09:47:25;;;;;;;6.43;3.60;;;;;;;4.01;100.00;96592.81;5039728;28;20045;-60
2023/12/08 09:49:52;;;;;;;6.88;3.50;;;;;;;3.98;100.00;96591.41;5034364;28;20037;-58
2023/12/08 09:52:21;;;;;;;6.93;4.35;;;;;;;3.98;100.00;96594.09;5045273;28;20045;-61
2023/12/08 09:54:48;;;;;;;6.78;3.83;;;;;;;3.93;100.00;96577.91;5035682;28;20044;-58
2023/12/08 09:57:16;;;;;;;8.35;4.35;;;;;;;3.94;100.00;96595.59;5035960;28;20041;-61
2023/12/08 09:59:46;;;;;;;6.25;3.90;;;;;;;4.01;100.00;96587.47;5039980;28;20037;-60
2023/12/08 10:02:13;;;;;;;8.55;4.22;;;;;;;4.24;100.00;96588.56;5037680;28;20049;-60
2023/12/08 10:04:39;;;;;;;7.40;4.40;;;;;;;4.27;100.00;96588.09;5042292;28;20423;-58
2023/12/08 10:07:09;;;;;;;8.50;3.90;;;;;;;4.22;100.00;96588.81;5042351;28;20074;-57
2023/12/08 10:09:36;;;;;;;8.02;4.05;;;;;;;4.20;100.00;96596.25;5038348;28;20555;-60
2023/12/08 10:12:03;;;;;;;6.47;4.05;;;;;;;4.14;100.00;96589.13;5040822;28;20063;-60
2023/12/08 10:14:31;;;;;;;7.03;3.80;;;;;;;4.09;100.00;96594.38;5052884;28;20049;-62
2023/12/08 10:16:58;;;;;;;7.25;3.80;;;;;;;4.09;100.00;96586.34;5038040;28;20103;-62
2023/12/08 10:19:24;;;;;;;6.65;3.63;;;;;;;4.21;100.00;96586.34;5031944;28;20140;-62
2023/12/08 10:22:01;;;;;;;6.43;3.92;;;;;;;4.31;100.00;96578.53;5031915;28;20079;-62
2023/12/08 10:24:30;;;;;;;7.60;3.78;;;;;;;4.34;100.00;96585.31;5041577;28;20051;-61
2023/12/08 10:26:58;;;;;;;7.97;4.32;;;;;;;4.35;100.00;96585.06;5038320;28;20131;-62
2023/12/08 10:29:31;;;;;;;8.80;4.18;;;;;;;4.25;100.00;96585.69;5043356;28;20041;-62
2023/12/08 10:31:58;;;;;;;9.15;4.18;;;;;;;4.16;100.00;96582.50;5042721;28;20060;-62
2023/12/08 10:34:26;;;;;;;6.43;3.90;;;;;;;4.20;100.00;96582.84;5031602;28;20044;-61
2023/12/08 10:36:54;;;;;;;7.40;4.10;;;;;;;4.26;100.00;96581.94;5046032;28;20056;-61
2023/12/08 10:39:20;;;;;;;7.63;4.38;;;;;;;4.21;100.00;96575.63;5042479;28;20052;-62
2023/12/08 10:41:48;;;;;;;8.05;4.78;;;;;;;4.10;100.00;96574.56;5034354;28;20062;-62
2023/12/08 10:44:19;;;;;;;9.85;3.92;;;;;;;4.18;100.00;96579.59;5041500;28;20560;-62
2023/12/08 10:46:48;;;;;;;;;;;;;;;4.29;100.00;96580.66;5033556;28;20049;-62
2023/12/08 10:49:21;;;;;;;7.40;4.35;;;;;;;4.36;100.00;96569.81;5034709;28;19929;-62
2023/12/08 10:51:49;;;;;;;8.48;4.03;;;;;;;4.42;100.00;96571.56;5036159;28;20111;-61
2023/12/08 10:54:17;;;;;;;7.20;4.25;;;;;;;4.53;100.00;96575.31;5032870;28;20513;-61
2023/12/08 10:56:48;;;;;;;6.38;3.83;;;;;;;4.61;100.00;96566.13;5034911;28;20095;-60
2023/12/08 10:59:23;;;;;;;7.70;3.78;;;;;;;4.64;100.00;96573.69;5037865;28;20105;-62
2023/12/08 11:01:52;;;;;;;10.45;6.28;;;;;;;4.61;100.00;96574.16;5036932;28;20044;-62
2023/12/08 11:04:23;;;;;;;9.95;4.82;;;;;;;4.72;100.00;96573.31;5042003;28;20098;-60
2023/12/08 11:07:09;;;;;;;7.25;4.20;;;;;;;4.93;100.00;96568.41;5030521;28;20045;-60
2023/12/08 11:09:39;;;;;;;7.65;4.22;;;;;;;4.91;100.00;96568.63;5034709;28;20076;-59
2023/12/08 11:12:13;;;;;;;7.85;4.53;;;;;;;5.00;100.00;96569.09;5036169;28;20055;-60
2023/12/08 11:14:51;;;;;;;6.60;3.80;;;;;;;5.11;100.00;96569.31;5032587;28;20115;-60
2023/12/08 11:17:44;;;;;;;10.75;6.00;;;;;;;5.06;100.00;96578.88;5045318;28;20087;-60
2023/12/08 11:20:11;;;;;;;9.00;5.10;;;;;;;5.03;100.00;96584.75;5032918;28;20095;-58
2023/12/08 11:22:37;;;;;;;7.45;4.07;;;;;;;5.18;100.00;96586.09;5029423;28;20052;-60
2023/12/08 11:25:09;;;;;;;6.75;3.80;;;;;;;5.24;100.00;96585.19;5038721;28;20052;-59
2023/12/08 11:27:43;;;;;;;7.72;4.30;;;;;;;5.27;100.00;96573.16;5041027;28;20098;-60
2023/12/08 11:30:19;;;;;;;7.25;4.10;;;;;;;5.45;100.00;96574.81;5037891;28;20060;-59
2023/12/08 11:32:58;;;;;;;8.73;5.15;;;;;;;5.47;100.00;96575.41;5036539;28;20040;-60